sensor_id;sensor_type;location;lat;lon;timestamp;pressure;altitude;pressure_sealevel;temperature;humidity
34658;BME280;20865;43.312;27.152;2023-02-21T00:00:54;100474.36;;;13.48;38.41
34658;BME280;20865;43.312;27.152;2023-02-21T00:03:40;100471.98;;;13.40;38.63
34658;BME280;20865;43.312;27.152;2023-02-21T00:06:25;100454.75;;;13.46;38.50
34658;BME280;20865;43.312;27.152;2023-02-21T00:09:11;100461.30;;;13.50;38.46
34658;BME280;20865;43.312;27.152;2023-02-21T00:11:56;100452.26;;;13.53;38.41
34658;BME280;20865;43.312;27.152;2023-02-21T00:14:42;100448.03;;;13.57;38.35
34658;BME280;20865;43.312;27.152;2023-02-21T00:17:27;100443.89;;;13.61;38.29
34658;BME280;20865;43.312;27.152;2023-02-21T00:20:13;100431.62;;;13.65;38.23
34658;BME280;20865;43.312;27.152;2023-02-21T00:22:58;100435.99;;;13.68;38.11
34658;BME280;20865;43.312;27.152;2023-02-21T00:25:43;100429.16;;;13.71;38.02
34658;BME280;20865;43.312;27.152;2023-02-21T00:28:31;100417.48;;;13.72;37.98
34658;BME280;20865;43.312;27.152;2023-02-21T00:31:18;100425.92;;;13.73;37.84
34658;BME280;20865;43.312;27.152;2023-02-21T00:34:03;100419.96;;;13.76;37.80
34658;BME280;20865;43.312;27.152;2023-02-21T00:36:50;100410.25;;;13.74;37.73
34658;BME280;20865;43.312;27.152;2023-02-21T00:39:36;100396.34;;;13.74;37.69
34658;BME280;20865;43.312;27.152;2023-02-21T00:42:23;100388.61;;;13.77;37.60
34658;BME280;20865;43.312;27.152;2023-02-21T00:45:09;100371.59;;;13.78;37.42
34658;BME280;20865;43.312;27.152;2023-02-21T00:47:54;100377.27;;;13.80;37.34
34658;BME280;20865;43.312;27.152;2023-02-21T00:50:40;100378.48;;;13.83;37.23
34658;BME280;20865;43.312;27.152;2023-02-21T00:53:26;100379.19;;;13.89;37.07
34658;BME280;20865;43.312;27.152;2023-02-21T00:56:11;100389.67;;;13.95;36.99
34658;BME280;20865;43.312;27.152;2023-02-21T00:58:57;100391.28;;;13.99;36.82
34658;BME280;20865;43.312;27.152;2023-02-21T01:01:42;100390.34;;;14.00;36.68
34658;BME280;20865;43.312;27.152;2023-02-21T01:04:27;100387.92;;;14.04;36.57
34658;BME280;20865;43.312;27.152;2023-02-21T01:07:15;100376.17;;;14.06;36.46
34658;BME280;20865;43.312;27.152;2023-02-21T01:09:59;100374.23;;;14.10;36.46
34658;BME280;20865;43.312;27.152;2023-02-21T01:12:45;100378.27;;;14.10;36.41
34658;BME280;20865;43.312;27.152;2023-02-21T01:15:30;100368.64;;;14.04;36.40
34658;BME280;20865;43.312;27.152;2023-02-21T01:18:16;100374.36;;;14.07;36.40
34658;BME280;20865;43.312;27.152;2023-02-21T01:21:01;100366.91;;;14.03;36.42
34658;BME280;20865;43.312;27.152;2023-02-21T01:23:48;100362.22;;;14.09;36.42
34658;BME280;20865;43.312;27.152;2023-02-21T01:26:33;100360.80;;;14.10;36.36
34658;BME280;20865;43.312;27.152;2023-02-21T01:29:19;100359.54;;;14.09;36.27
34658;BME280;20865;43.312;27.152;2023-02-21T01:32:05;100341.00;;;14.13;36.24
34658;BME280;20865;43.312;27.152;2023-02-21T01:34:50;100345.06;;;14.42;35.73
34658;BME280;20865;43.312;27.152;2023-02-21T01:37:35;100343.02;;;14.47;35.59
34658;BME280;20865;43.312;27.152;2023-02-21T01:40:21;100339.69;;;14.42;35.66
34658;BME280;20865;43.312;27.152;2023-02-21T01:43:17;100337.20;;;14.47;35.50
34658;BME280;20865;43.312;27.152;2023-02-21T01:46:04;100337.55;;;14.50;35.44
34658;BME280;20865;43.312;27.152;2023-02-21T01:48:52;100332.17;;;14.50;35.34
34658;BME280;20865;43.312;27.152;2023-02-21T01:51:40;100329.20;;;14.56;35.20
34658;BME280;20865;43.312;27.152;2023-02-21T01:54:30;100327.47;;;14.55;35.26
34658;BME280;20865;43.312;27.152;2023-02-21T01:57:15;100335.06;;;14.74;34.85
34658;BME280;20865;43.312;27.152;2023-02-21T02:00:04;100325.46;;;14.79;34.80
34658;BME280;20865;43.312;27.152;2023-02-21T02:02:58;100312.94;;;14.78;34.77
34658;BME280;20865;43.312;27.152;2023-02-21T02:05:52;100316.35;;;14.82;34.69
34658;BME280;20865;43.312;27.152;2023-02-21T02:08:33;100315.01;;;14.82;34.66
34658;BME280;20865;43.312;27.152;2023-02-21T02:18:01;100301.89;;;14.84;34.41
34658;BME280;20865;43.312;27.152;2023-02-21T02:31:44;100306.46;;;14.92;34.03
34658;BME280;20865;43.312;27.152;2023-02-21T02:37:30;100308.53;;;14.96;33.86
34658;BME280;20865;43.312;27.152;2023-02-21T02:39:25;100308.05;;;14.96;33.81
34658;BME280;20865;43.312;27.152;2023-02-21T02:42:08;100307.23;;;14.94;33.77
34658;BME280;20865;43.312;27.152;2023-02-21T02:44:43;100305.41;;;14.95;33.73
34658;BME280;20865;43.312;27.152;2023-02-21T02:47:18;100300.91;;;14.95;33.62
34658;BME280;20865;43.312;27.152;2023-02-21T02:49:42;100294.45;;;14.99;33.65
34658;BME280;20865;43.312;27.152;2023-02-21T02:52:11;100285.42;;;14.82;33.88
34658;BME280;20865;43.312;27.152;2023-02-21T02:54:39;100284.56;;;14.81;33.91
34658;BME280;20865;43.312;27.152;2023-02-21T02:57:08;100280.77;;;14.85;33.79
34658;BME280;20865;43.312;27.152;2023-02-21T02:59:39;100274.67;;;14.82;33.89
34658;BME280;20865;43.312;27.152;2023-02-21T03:05:19;100283.41;;;14.87;33.75
34658;BME280;20865;43.312;27.152;2023-02-21T03:08:14;100285.76;;;14.84;33.71
34658;BME280;20865;43.312;27.152;2023-02-21T03:11:20;100283.02;;;14.86;33.80
34658;BME280;20865;43.312;27.152;2023-02-21T03:16:17;100283.46;;;14.85;33.87
34658;BME280;20865;43.312;27.152;2023-02-21T03:18:47;100287.97;;;14.85;33.89
34658;BME280;20865;43.312;27.152;2023-02-21T03:21:16;100291.53;;;14.85;33.93
34658;BME280;20865;43.312;27.152;2023-02-21T03:23:47;100281.11;;;14.88;33.83
34658;BME280;20865;43.312;27.152;2023-02-21T03:26:17;100292.73;;;14.88;33.90
34658;BME280;20865;43.312;27.152;2023-02-21T03:28:45;100294.16;;;14.87;33.97
34658;BME280;20865;43.312;27.152;2023-02-21T03:31:16;100299.45;;;14.88;33.96
34658;BME280;20865;43.312;27.152;2023-02-21T03:33:45;100302.87;;;14.92;33.98
34658;BME280;20865;43.312;27.152;2023-02-21T03:36:13;100307.33;;;14.93;33.93
34658;BME280;20865;43.312;27.152;2023-02-21T03:38:41;100295.70;;;14.92;33.97
34658;BME280;20865;43.312;27.152;2023-02-21T03:41:10;100297.44;;;14.93;33.99
34658;BME280;20865;43.312;27.152;2023-02-21T03:43:38;100301.33;;;14.96;33.95
34658;BME280;20865;43.312;27.152;2023-02-21T03:46:06;100309.30;;;14.98;33.97
34658;BME280;20865;43.312;27.152;2023-02-21T03:48:33;100297.34;;;14.95;34.00
34658;BME280;20865;43.312;27.152;2023-02-21T03:51:01;100298.48;;;14.99;33.78
34658;BME280;20865;43.312;27.152;2023-02-21T03:53:29;100295.80;;;14.99;33.89
34658;BME280;20865;43.312;27.152;2023-02-21T03:55:56;100291.67;;;15.01;33.91
34658;BME280;20865;43.312;27.152;2023-02-21T03:58:24;100283.75;;;14.98;33.79
34658;BME280;20865;43.312;27.152;2023-02-21T04:00:52;100286.20;;;15.03;33.80
34658;BME280;20865;43.312;27.152;2023-02-21T04:03:20;100273.56;;;15.05;33.75
34658;BME280;20865;43.312;27.152;2023-02-21T04:05:48;100272.08;;;15.08;33.69
34658;BME280;20865;43.312;27.152;2023-02-21T04:08:16;100256.32;;;15.09;33.65
34658;BME280;20865;43.312;27.152;2023-02-21T04:10:44;100254.44;;;15.11;33.71
34658;BME280;20865;43.312;27.152;2023-02-21T04:13:11;100257.46;;;15.13;33.60
34658;BME280;20865;43.312;27.152;2023-02-21T04:15:39;100252.70;;;15.18;33.46
34658;BME280;20865;43.312;27.152;2023-02-21T04:18:06;100252.80;;;15.17;33.29
34658;BME280;20865;43.312;27.152;2023-02-21T04:20:34;100251.36;;;15.18;33.33
34658;BME280;20865;43.312;27.152;2023-02-21T04:23:02;100242.52;;;15.25;33.19
34658;BME280;20865;43.312;27.152;2023-02-21T04:25:29;100247.98;;;15.32;33.05
34658;BME280;20865;43.312;27.152;2023-02-21T04:27:57;100254.08;;;15.36;32.90
34658;BME280;20865;43.312;27.152;2023-02-21T04:30:24;100247.59;;;15.40;32.77
34658;BME280;20865;43.312;27.152;2023-02-21T04:32:52;100241.58;;;15.43;32.80
34658;BME280;20865;43.312;27.152;2023-02-21T04:35:20;100250.21;;;15.50;32.59
34658;BME280;20865;43.312;27.152;2023-02-21T04:37:47;100236.20;;;15.52;32.63
34658;BME280;20865;43.312;27.152;2023-02-21T04:40:15;100231.53;;;15.56;32.55
34658;BME280;20865;43.312;27.152;2023-02-21T04:42:42;100224.88;;;15.63;32.45
34658;BME280;20865;43.312;27.152;2023-02-21T04:45:10;100236.13;;;15.62;32.36
34658;BME280;20865;43.312;27.152;2023-02-21T04:47:38;100228.92;;;15.63;32.33
34658;BME280;20865;43.312;27.152;2023-02-21T04:50:06;100222.25;;;15.61;32.28
34658;BME280;20865;43.312;27.152;2023-02-21T04:52:35;100225.86;;;15.70;32.20
34658;BME280;20865;43.312;27.152;2023-02-21T04:55:03;100223.70;;;15.68;32.32
34658;BME280;20865;43.312;27.152;2023-02-21T04:57:31;100233.06;;;15.70;32.26
34658;BME280;20865;43.312;27.152;2023-02-21T05:00:00;100229.09;;;15.68;32.31
34658;BME280;20865;43.312;27.152;2023-02-21T05:02:27;100225.14;;;15.67;32.31
34658;BME280;20865;43.312;27.152;2023-02-21T05:04:55;100217.73;;;15.62;32.38
34658;BME280;20865;43.312;27.152;2023-02-21T05:07:23;100212.16;;;15.66;32.35
34658;BME280;20865;43.312;27.152;2023-02-21T05:09:51;100208.12;;;15.66;32.35
34658;BME280;20865;43.312;27.152;2023-02-21T05:12:18;100214.17;;;15.61;32.41
34658;BME280;20865;43.312;27.152;2023-02-21T05:14:46;100214.41;;;15.65;32.42
34658;BME280;20865;43.312;27.152;2023-02-21T05:17:14;100217.28;;;15.62;32.44
34658;BME280;20865;43.312;27.152;2023-02-21T05:19:42;100222.45;;;15.67;32.39
34658;BME280;20865;43.312;27.152;2023-02-21T05:22:09;100222.77;;;15.69;32.36
34658;BME280;20865;43.312;27.152;2023-02-21T05:24:43;100212.77;;;15.71;32.42
34658;BME280;20865;43.312;27.152;2023-02-21T05:27:08;100220.86;;;15.80;32.32
34658;BME280;20865;43.312;27.152;2023-02-21T05:29:37;100227.25;;;15.86;32.17
34658;BME280;20865;43.312;27.152;2023-02-21T05:32:04;100227.16;;;15.96;32.00
34658;BME280;20865;43.312;27.152;2023-02-21T05:34:32;100226.73;;;16.13;31.83
34658;BME280;20865;43.312;27.152;2023-02-21T05:36:59;100230.19;;;16.48;31.41
34658;BME280;20865;43.312;27.152;2023-02-21T05:39:27;100228.68;;;16.92;30.60
34658;BME280;20865;43.312;27.152;2023-02-21T05:41:55;100224.17;;;17.75;29.78
34658;BME280;20865;43.312;27.152;2023-02-21T05:44:22;100220.27;;;18.52;28.50
34658;BME280;20865;43.312;27.152;2023-02-21T05:46:50;100224.48;;;18.85;27.83
34658;BME280;20865;43.312;27.152;2023-02-21T05:49:17;100221.90;;;19.03;27.79
34658;BME280;20865;43.312;27.152;2023-02-21T05:51:46;100224.75;;;19.22;27.43
34658;BME280;20865;43.312;27.152;2023-02-21T05:54:16;100230.11;;;19.36;27.30
34658;BME280;20865;43.312;27.152;2023-02-21T05:56:45;100236.03;;;19.48;27.16
34658;BME280;20865;43.312;27.152;2023-02-21T05:59:16;100237.55;;;19.60;27.17
34658;BME280;20865;43.312;27.152;2023-02-21T06:01:45;100228.63;;;19.65;26.92
34658;BME280;20865;43.312;27.152;2023-02-21T06:04:13;100238.19;;;19.83;26.94
34658;BME280;20865;43.312;27.152;2023-02-21T06:06:41;100234.87;;;20.05;26.74
34658;BME280;20865;43.312;27.152;2023-02-21T06:09:09;100227.05;;;20.26;26.64
34658;BME280;20865;43.312;27.152;2023-02-21T06:11:38;100231.05;;;20.59;26.66
34658;BME280;20865;43.312;27.152;2023-02-21T06:14:17;100219.52;;;20.86;25.98
34658;BME280;20865;43.312;27.152;2023-02-21T06:16:46;100235.38;;;21.16;25.61
34658;BME280;20865;43.312;27.152;2023-02-21T06:19:14;100237.42;;;21.31;25.40
34658;BME280;20865;43.312;27.152;2023-02-21T06:21:45;100236.39;;;21.27;25.43
34658;BME280;20865;43.312;27.152;2023-02-21T06:24:13;100245.20;;;21.06;25.30
34658;BME280;20865;43.312;27.152;2023-02-21T06:26:41;100241.38;;;20.72;25.56
34658;BME280;20865;43.312;27.152;2023-02-21T06:29:11;100238.02;;;20.43;26.21
34658;BME280;20865;43.312;27.152;2023-02-21T06:31:38;100239.12;;;20.15;26.64
34658;BME280;20865;43.312;27.152;2023-02-21T06:34:06;100233.87;;;19.93;27.03
34658;BME280;20865;43.312;27.152;2023-02-21T06:36:33;100232.61;;;19.79;27.39
34658;BME280;20865;43.312;27.152;2023-02-21T06:39:01;100234.84;;;19.60;27.67
34658;BME280;20865;43.312;27.152;2023-02-21T06:41:29;100237.79;;;19.49;27.92
34658;BME280;20865;43.312;27.152;2023-02-21T06:43:58;100239.06;;;19.44;28.15
34658;BME280;20865;43.312;27.152;2023-02-21T06:46:28;100234.67;;;19.48;28.68
34658;BME280;20865;43.312;27.152;2023-02-21T06:48:56;100241.41;;;19.56;28.30
34658;BME280;20865;43.312;27.152;2023-02-21T06:51:24;100237.70;;;19.71;28.48
34658;BME280;20865;43.312;27.152;2023-02-21T06:53:56;100239.55;;;19.83;28.18
34658;BME280;20865;43.312;27.152;2023-02-21T06:56:24;100234.56;;;19.90;27.90
34658;BME280;20865;43.312;27.152;2023-02-21T06:58:54;100241.03;;;20.07;27.90
34658;BME280;20865;43.312;27.152;2023-02-21T07:01:24;100239.69;;;20.20;27.28
34658;BME280;20865;43.312;27.152;2023-02-21T07:03:54;100239.25;;;20.52;27.65
34658;BME280;20865;43.312;27.152;2023-02-21T07:06:23;100235.24;;;20.76;27.41
34658;BME280;20865;43.312;27.152;2023-02-21T07:08:50;100219.58;;;20.98;26.91
34658;BME280;20865;43.312;27.152;2023-02-21T07:11:18;100217.09;;;21.13;26.70
34658;BME280;20865;43.312;27.152;2023-02-21T07:13:53;100215.62;;;21.38;26.69
34658;BME280;20865;43.312;27.152;2023-02-21T07:16:18;100211.56;;;21.79;26.15
34658;BME280;20865;43.312;27.152;2023-02-21T07:18:46;100207.40;;;22.09;25.48
34658;BME280;20865;43.312;27.152;2023-02-21T07:21:14;100212.03;;;22.25;24.73
34658;BME280;20865;43.312;27.152;2023-02-21T07:23:46;100207.32;;;22.44;25.18
34658;BME280;20865;43.312;27.152;2023-02-21T07:26:14;100213.37;;;22.70;24.88
34658;BME280;20865;43.312;27.152;2023-02-21T07:28:42;100205.65;;;22.87;24.34
34658;BME280;20865;43.312;27.152;2023-02-21T07:31:11;100211.23;;;23.02;23.65
34658;BME280;20865;43.312;27.152;2023-02-21T07:33:38;100208.48;;;23.08;23.95
34658;BME280;20865;43.312;27.152;2023-02-21T07:36:06;100212.11;;;23.35;23.73
34658;BME280;20865;43.312;27.152;2023-02-21T07:38:35;100204.03;;;23.39;23.59
34658;BME280;20865;43.312;27.152;2023-02-21T07:41:03;100201.55;;;23.41;23.51
34658;BME280;20865;43.312;27.152;2023-02-21T07:43:31;100200.05;;;23.43;23.42
34658;BME280;20865;43.312;27.152;2023-02-21T07:45:58;100208.20;;;23.54;23.64
34658;BME280;20865;43.312;27.152;2023-02-21T07:48:26;100211.08;;;23.47;23.12
34658;BME280;20865;43.312;27.152;2023-02-21T07:50:56;100204.46;;;23.55;23.06
34658;BME280;20865;43.312;27.152;2023-02-21T07:53:23;100207.86;;;23.42;23.04
34658;BME280;20865;43.312;27.152;2023-02-21T07:55:50;100206.20;;;23.29;23.27
34658;BME280;20865;43.312;27.152;2023-02-21T07:58:18;100204.89;;;23.39;23.44
34658;BME280;20865;43.312;27.152;2023-02-21T08:00:46;100211.69;;;23.45;23.60
34658;BME280;20865;43.312;27.152;2023-02-21T08:03:14;100201.56;;;23.36;23.26
34658;BME280;20865;43.312;27.152;2023-02-21T08:05:41;100198.28;;;23.26;23.47
34658;BME280;20865;43.312;27.152;2023-02-21T08:08:09;100193.84;;;23.20;23.82
34658;BME280;20865;43.312;27.152;2023-02-21T08:10:37;100189.77;;;23.14;23.37
34658;BME280;20865;43.312;27.152;2023-02-21T08:13:05;100190.52;;;23.16;23.66
34658;BME280;20865;43.312;27.152;2023-02-21T08:15:32;100186.83;;;23.06;23.48
34658;BME280;20865;43.312;27.152;2023-02-21T08:18:00;100182.42;;;22.66;23.61
34658;BME280;20865;43.312;27.152;2023-02-21T08:20:28;100177.64;;;22.47;24.28
34658;BME280;20865;43.312;27.152;2023-02-21T08:22:55;100181.71;;;22.41;24.53
34658;BME280;20865;43.312;27.152;2023-02-21T08:25:23;100168.88;;;22.15;24.36
34658;BME280;20865;43.312;27.152;2023-02-21T08:27:51;100171.35;;;22.35;24.28
34658;BME280;20865;43.312;27.152;2023-02-21T08:30:19;100162.14;;;22.13;23.91
34658;BME280;20865;43.312;27.152;2023-02-21T08:32:46;100159.84;;;22.26;24.33
34658;BME280;20865;43.312;27.152;2023-02-21T08:35:15;100142.52;;;22.32;24.32
34658;BME280;20865;43.312;27.152;2023-02-21T08:37:47;100140.91;;;22.30;24.31
34658;BME280;20865;43.312;27.152;2023-02-21T08:40:17;100140.92;;;22.35;24.30
34658;BME280;20865;43.312;27.152;2023-02-21T08:42:49;100138.70;;;22.35;24.27
34658;BME280;20865;43.312;27.152;2023-02-21T08:45:19;100132.26;;;22.36;24.51
34658;BME280;20865;43.312;27.152;2023-02-21T08:47:48;100133.26;;;22.35;24.38
34658;BME280;20865;43.312;27.152;2023-02-21T08:50:17;100130.28;;;22.32;24.30
34658;BME280;20865;43.312;27.152;2023-02-21T08:52:46;100109.84;;;22.38;24.37
34658;BME280;20865;43.312;27.152;2023-02-21T08:55:15;100122.12;;;22.32;24.46
34658;BME280;20865;43.312;27.152;2023-02-21T08:57:42;100118.30;;;22.18;24.12
34658;BME280;20865;43.312;27.152;2023-02-21T09:00:12;100115.68;;;22.11;24.23
34658;BME280;20865;43.312;27.152;2023-02-21T09:02:40;100115.70;;;22.22;24.32
34658;BME280;20865;43.312;27.152;2023-02-21T09:05:15;100117.30;;;22.19;24.16
34658;BME280;20865;43.312;27.152;2023-02-21T09:07:41;100119.88;;;22.21;24.01
34658;BME280;20865;43.312;27.152;2023-02-21T09:10:10;100124.33;;;22.27;24.08
34658;BME280;20865;43.312;27.152;2023-02-21T09:12:38;100114.84;;;22.22;23.97
34658;BME280;20865;43.312;27.152;2023-02-21T09:15:06;100118.66;;;22.19;23.92
34658;BME280;20865;43.312;27.152;2023-02-21T09:17:35;100115.83;;;22.15;23.78
34658;BME280;20865;43.312;27.152;2023-02-21T09:20:05;100124.33;;;22.27;23.81
34658;BME280;20865;43.312;27.152;2023-02-21T09:22:33;100111.48;;;22.29;23.72
34658;BME280;20865;43.312;27.152;2023-02-21T09:25:02;100099.98;;;22.26;23.54
34658;BME280;20865;43.312;27.152;2023-02-21T09:27:30;100090.10;;;22.19;23.46
34658;BME280;20865;43.312;27.152;2023-02-21T09:30:06;100083.42;;;22.29;23.45
34658;BME280;20865;43.312;27.152;2023-02-21T09:32:34;100089.58;;;22.31;23.50
34658;BME280;20865;43.312;27.152;2023-02-21T09:35:03;100095.55;;;22.25;23.68
34658;BME280;20865;43.312;27.152;2023-02-21T09:37:31;100085.27;;;22.23;23.74
34658;BME280;20865;43.312;27.152;2023-02-21T09:39:59;100085.52;;;22.25;23.42
34658;BME280;20865;43.312;27.152;2023-02-21T09:42:31;100071.03;;;22.36;23.64
34658;BME280;20865;43.312;27.152;2023-02-21T09:44:59;100066.20;;;22.40;23.59
34658;BME280;20865;43.312;27.152;2023-02-21T09:47:34;100066.06;;;22.47;23.63
34658;BME280;20865;43.312;27.152;2023-02-21T09:50:05;100051.84;;;22.43;23.64
34658;BME280;20865;43.312;27.152;2023-02-21T09:52:37;100044.08;;;22.39;23.43
34658;BME280;20865;43.312;27.152;2023-02-21T09:55:12;100039.34;;;22.46;23.17
34658;BME280;20865;43.312;27.152;2023-02-21T09:57:39;100029.17;;;22.54;23.27
34658;BME280;20865;43.312;27.152;2023-02-21T10:00:15;100029.77;;;22.63;23.26
34658;BME280;20865;43.312;27.152;2023-02-21T10:08:08;100034.91;;;23.04;23.02
34658;BME280;20865;43.312;27.152;2023-02-21T10:10:38;100004.06;;;23.09;22.57
34658;BME280;20865;43.312;27.152;2023-02-21T10:16:07;100006.17;;;23.26;22.23
34658;BME280;20865;43.312;27.152;2023-02-21T10:19:27;100011.45;;;23.34;22.18
34658;BME280;20865;43.312;27.152;2023-02-21T10:21:26;100014.23;;;23.43;22.04
34658;BME280;20865;43.312;27.152;2023-02-21T10:23:54;100001.41;;;23.19;21.93
34658;BME280;20865;43.312;27.152;2023-02-21T10:26:25;99988.61;;;23.40;22.09
34658;BME280;20865;43.312;27.152;2023-02-21T10:28:54;99986.53;;;23.53;21.92
34658;BME280;20865;43.312;27.152;2023-02-21T10:31:31;99998.83;;;23.48;21.54
34658;BME280;20865;43.312;27.152;2023-02-21T10:33:59;100002.13;;;23.67;21.63
34658;BME280;20865;43.312;27.152;2023-02-21T10:36:27;99977.86;;;23.94;21.57
34658;BME280;20865;43.312;27.152;2023-02-21T10:39:09;99982.56;;;24.08;21.24
34658;BME280;20865;43.312;27.152;2023-02-21T10:41:36;99986.89;;;24.30;20.74
34658;BME280;20865;43.312;27.152;2023-02-21T10:44:13;99965.83;;;24.51;20.42
34658;BME280;20865;43.312;27.152;2023-02-21T10:46:51;99980.78;;;24.66;20.10
34658;BME280;20865;43.312;27.152;2023-02-21T10:49:23;99973.61;;;24.65;19.91
34658;BME280;20865;43.312;27.152;2023-02-21T10:52:11;99977.55;;;24.77;20.20
34658;BME280;20865;43.312;27.152;2023-02-21T10:54:39;99977.77;;;24.69;20.51
34658;BME280;20865;43.312;27.152;2023-02-21T10:57:09;99968.42;;;24.53;20.11
34658;BME280;20865;43.312;27.152;2023-02-21T10:59:39;99964.73;;;24.38;20.10
34658;BME280;20865;43.312;27.152;2023-02-21T11:02:29;99974.27;;;24.29;19.66
34658;BME280;20865;43.312;27.152;2023-02-21T11:05:11;99976.27;;;24.17;19.81
34658;BME280;20865;43.312;27.152;2023-02-21T11:07:41;99972.00;;;23.99;19.81
34658;BME280;20865;43.312;27.152;2023-02-21T11:10:25;99976.84;;;23.86;20.03
34658;BME280;20865;43.312;27.152;2023-02-21T11:13:01;99977.47;;;23.84;19.89
34658;BME280;20865;43.312;27.152;2023-02-21T11:15:20;99953.70;;;23.65;20.35
34658;BME280;20865;43.312;27.152;2023-02-21T11:18:01;99956.13;;;23.73;20.13
34658;BME280;20865;43.312;27.152;2023-02-21T11:20:20;99960.98;;;23.70;20.53
34658;BME280;20865;43.312;27.152;2023-02-21T11:22:49;99953.47;;;23.77;20.41
34658;BME280;20865;43.312;27.152;2023-02-21T11:25:26;99952.27;;;23.76;20.73
34658;BME280;20865;43.312;27.152;2023-02-21T11:28:05;99945.14;;;23.69;20.22
34658;BME280;20865;43.312;27.152;2023-02-21T11:30:39;99952.45;;;23.69;20.22
34658;BME280;20865;43.312;27.152;2023-02-21T11:33:09;99942.48;;;23.73;20.17
34658;BME280;20865;43.312;27.152;2023-02-21T11:35:46;99941.72;;;23.62;20.13
34658;BME280;20865;43.312;27.152;2023-02-21T11:40:56;99940.31;;;23.67;20.10
34658;BME280;20865;43.312;27.152;2023-02-21T11:43:26;99938.98;;;23.62;20.17
34658;BME280;20865;43.312;27.152;2023-02-21T11:46:01;99933.97;;;23.67;20.28
34658;BME280;20865;43.312;27.152;2023-02-21T11:48:33;99941.20;;;23.62;20.37
34658;BME280;20865;43.312;27.152;2023-02-21T11:51:05;99948.26;;;23.65;20.10
34658;BME280;20865;43.312;27.152;2023-02-21T11:53:36;99934.97;;;23.71;19.93
34658;BME280;20865;43.312;27.152;2023-02-21T11:56:17;99943.45;;;23.78;20.00
34658;BME280;20865;43.312;27.152;2023-02-21T12:01:45;99938.56;;;23.66;19.78
34658;BME280;20865;43.312;27.152;2023-02-21T12:04:23;99938.83;;;23.63;19.75
34658;BME280;20865;43.312;27.152;2023-02-21T12:07:14;99940.42;;;23.71;19.58
34658;BME280;20865;43.312;27.152;2023-02-21T12:10:00;99937.27;;;23.76;19.85
34658;BME280;20865;43.312;27.152;2023-02-21T12:12:54;99935.67;;;23.58;19.86
34658;BME280;20865;43.312;27.152;2023-02-21T12:15:24;99919.74;;;23.53;20.06
34658;BME280;20865;43.312;27.152;2023-02-21T12:27:01;99920.80;;;23.47;20.63
34658;BME280;20865;43.312;27.152;2023-02-21T12:29:46;99910.95;;;23.65;20.44
34658;BME280;20865;43.312;27.152;2023-02-21T12:40:53;99901.36;;;23.96;20.47
34658;BME280;20865;43.312;27.152;2023-02-21T12:43:37;99889.19;;;23.85;20.41
34658;BME280;20865;43.312;27.152;2023-02-21T12:46:24;99893.86;;;23.88;20.32
34658;BME280;20865;43.312;27.152;2023-02-21T12:51:25;99889.42;;;23.87;20.92
34658;BME280;20865;43.312;27.152;2023-02-21T12:56:44;99892.90;;;23.99;20.62
34658;BME280;20865;43.312;27.152;2023-02-21T12:59:27;99895.27;;;24.17;20.62
34658;BME280;20865;43.312;27.152;2023-02-21T13:02:08;99900.45;;;24.20;20.21
34658;BME280;20865;43.312;27.152;2023-02-21T13:04:45;99899.28;;;24.33;20.36
34658;BME280;20865;43.312;27.152;2023-02-21T13:07:16;99901.67;;;24.51;20.27
34658;BME280;20865;43.312;27.152;2023-02-21T13:12:44;99889.15;;;24.68;20.18
34658;BME280;20865;43.312;27.152;2023-02-21T13:15:20;99896.64;;;24.76;19.81
34658;BME280;20865;43.312;27.152;2023-02-21T13:18:01;99886.91;;;24.77;19.61
34658;BME280;20865;43.312;27.152;2023-02-21T13:20:33;99895.38;;;24.84;19.53
34658;BME280;20865;43.312;27.152;2023-02-21T13:32:01;99881.44;;;24.87;19.50
34658;BME280;20865;43.312;27.152;2023-02-21T13:34:34;99882.75;;;24.83;19.47
34658;BME280;20865;43.312;27.152;2023-02-21T13:37:02;99882.42;;;24.86;19.55
34658;BME280;20865;43.312;27.152;2023-02-21T13:39:32;99876.16;;;24.76;19.70
34658;BME280;20865;43.312;27.152;2023-02-21T13:42:17;99868.77;;;24.86;19.18
34658;BME280;20865;43.312;27.152;2023-02-21T13:44:52;99873.53;;;24.84;19.09
34658;BME280;20865;43.312;27.152;2023-02-21T13:47:18;99859.95;;;24.78;19.16
34658;BME280;20865;43.312;27.152;2023-02-21T13:49:50;99862.26;;;24.83;19.15
34658;BME280;20865;43.312;27.152;2023-02-21T13:52:24;99854.67;;;24.67;19.14
34658;BME280;20865;43.312;27.152;2023-02-21T13:57:48;99861.72;;;24.69;19.59
34658;BME280;20865;43.312;27.152;2023-02-21T14:08:43;99842.63;;;24.50;19.73
34658;BME280;20865;43.312;27.152;2023-02-21T14:11:20;99842.21;;;24.55;19.83
34658;BME280;20865;43.312;27.152;2023-02-21T14:14:23;99833.97;;;24.41;19.75
34658;BME280;20865;43.312;27.152;2023-02-21T14:19:18;99834.59;;;24.48;19.99
34658;BME280;20865;43.312;27.152;2023-02-21T14:21:42;99841.83;;;24.54;20.16
34658;BME280;20865;43.312;27.152;2023-02-21T14:24:24;99844.55;;;24.54;20.37
34658;BME280;20865;43.312;27.152;2023-02-21T14:27:03;99853.60;;;24.54;20.53
34658;BME280;20865;43.312;27.152;2023-02-21T14:29:44;99841.13;;;24.52;20.72
34658;BME280;20865;43.312;27.152;2023-02-21T14:43:06;99854.34;;;24.27;20.73
34658;BME280;20865;43.312;27.152;2023-02-21T14:45:54;99858.85;;;24.32;20.92
34658;BME280;20865;43.312;27.152;2023-02-21T14:56:44;99859.45;;;24.16;21.21
34658;BME280;20865;43.312;27.152;2023-02-21T15:04:47;99863.17;;;23.96;21.16
34658;BME280;20865;43.312;27.152;2023-02-21T15:10:17;99859.88;;;23.92;21.38